createdAt,value
2018-02-16T00:00:23.635Z,30.65
2018-02-16T00:02:50.205Z,35.53
2018-02-16T00:05:17.571Z,32.33
2018-02-16T00:07:45.982Z,32.15
2018-02-16T00:10:12.577Z,26.10
2018-02-16T00:12:39.169Z,32.13
2018-02-16T00:15:05.759Z,27.10
2018-02-16T00:17:32.395Z,30.30
2018-02-16T00:19:59.024Z,29.35
2018-02-16T00:22:25.597Z,27.87
2018-02-16T00:24:52.215Z,26.42
2018-02-16T00:27:19.400Z,24.45
2018-02-16T00:29:46.014Z,29.67
2018-02-16T00:32:12.621Z,25.30
2018-02-16T00:34:39.201Z,23.70
2018-02-16T00:37:06.528Z,24.00
2018-02-16T00:39:33.135Z,23.10
2018-02-16T00:42:01.287Z,26.98
2018-02-16T00:44:27.915Z,23.45
2018-02-16T00:46:54.502Z,21.67
2018-02-16T00:49:21.120Z,26.62
2018-02-16T00:51:47.715Z,27.90
2018-02-16T00:54:14.359Z,30.27
2018-02-16T00:56:40.944Z,37.83
2018-02-16T00:59:07.520Z,47.97
2018-02-16T01:01:34.872Z,35.50
2018-02-16T01:04:01.453Z,33.80
2018-02-16T01:06:28.802Z,27.05
2018-02-16T01:08:55.398Z,34.25
2018-02-16T01:11:22.010Z,27.30
2018-02-16T01:13:48.616Z,32.13
2018-02-16T01:16:15.185Z,27.37
2018-02-16T01:18:41.830Z,24.77
2018-02-16T01:21:08.396Z,32.97
2018-02-16T01:23:35.784Z,24.48
2018-02-16T01:29:06.091Z,26.10
2018-02-16T01:34:33.776Z,24.83
2018-02-16T01:37:00.334Z,24.55
2018-02-16T01:42:27.869Z,31.67
2018-02-16T09:30:52.720Z,31.75
2018-02-16T09:51:18.547Z,28.10
2018-02-16T09:53:45.171Z,29.92
2018-02-16T09:56:12.644Z,26.80
2018-02-16T09:58:39.201Z,24.27
2018-02-16T10:01:05.820Z,23.40
2018-02-16T10:03:32.445Z,22.00
2018-02-16T10:05:59.131Z,27.35
2018-02-16T10:08:25.706Z,29.90
2018-02-16T10:10:52.306Z,27.85
2018-02-16T10:13:18.911Z,23.08
2018-02-16T10:15:46.276Z,29.63
2018-02-16T10:18:13.655Z,30.90
2018-02-16T10:20:40.982Z,25.30
2018-02-16T10:23:07.621Z,24.60
2018-02-16T10:25:34.206Z,25.08
2018-02-16T10:28:02.195Z,28.35
2018-02-16T10:30:30.604Z,23.30
2018-02-16T10:32:57.267Z,34.92
2018-02-16T10:35:23.880Z,33.33
2018-02-16T10:58:52.227Z,26.87
2018-02-16T11:01:18.796Z,30.45
2018-02-16T11:03:51.510Z,30.73
2018-02-16T11:06:24.029Z,26.70
2018-02-16T11:08:57.722Z,30.20
2018-02-16T11:11:24.396Z,22.73
2018-02-16T11:13:50.999Z,23.05
2018-02-16T11:16:17.591Z,27.25
2018-02-16T11:18:44.932Z,21.73
2018-02-16T11:21:11.590Z,23.27
2018-02-16T11:23:38.202Z,27.48
2018-02-16T11:26:04.810Z,25.67
2018-02-16T11:28:31.492Z,25.40
2018-02-16T11:30:59.075Z,24.63
2018-02-16T11:33:26.667Z,25.62
2018-02-16T11:35:53.526Z,22.77
2018-02-16T11:38:20.852Z,24.90
2018-02-16T11:40:47.669Z,18.45
2018-02-16T12:01:23.971Z,18.70
2018-02-16T12:06:38.038Z,19.70
2018-02-16T12:09:24.689Z,13.03
2018-02-16T12:11:59.542Z,20.60
2018-02-16T12:14:31.821Z,13.03
2018-02-16T12:17:03.933Z,13.07
2018-02-16T12:22:15.732Z,13.60
2018-02-16T13:07:22.462Z,7.93
2018-02-16T13:34:46.004Z,8.10
2018-02-16T13:37:12.708Z,10.90
2018-02-16T13:39:39.406Z,8.23
2018-02-16T13:42:05.997Z,11.03
2018-02-16T13:44:32.601Z,5.10
2018-02-16T13:46:59.944Z,9.47
2018-02-16T13:49:26.570Z,11.93
2018-02-16T13:51:53.211Z,8.80
2018-02-16T13:54:19.807Z,17.60
2018-02-16T13:56:46.426Z,6.77
2018-02-16T13:59:13.017Z,12.53
2018-02-16T14:01:39.645Z,12.13
2018-02-16T14:04:06.262Z,9.53
2018-02-16T14:06:33.644Z,6.60
2018-02-16T14:09:00.994Z,9.80
2018-02-16T14:11:27.646Z,9.13
2018-02-16T14:13:54.244Z,9.40
2018-02-16T14:16:20.835Z,7.33
2018-02-16T14:18:47.470Z,6.70
2018-02-16T14:21:14.137Z,6.53
2018-02-16T14:23:40.795Z,4.63
2018-02-16T14:44:08.782Z,7.90
2018-02-16T14:46:35.541Z,13.30
2018-02-16T14:49:02.207Z,9.20
2018-02-16T14:51:28.925Z,10.13
2018-02-16T14:53:56.276Z,7.80
2018-02-16T15:14:26.684Z,11.07
2018-02-16T15:16:55.710Z,9.10
2018-02-16T15:19:23.346Z,9.07
2018-02-16T15:21:50.892Z,7.40
2018-02-16T15:24:20.605Z,9.47
2018-02-16T15:26:49.559Z,9.13
2018-02-16T15:29:18.451Z,8.27
2018-02-16T15:32:01.204Z,7.50
2018-02-16T15:34:33.722Z,11.43
2018-02-16T15:37:05.583Z,9.70
2018-02-16T15:39:42.360Z,9.67
2018-02-16T15:42:31.715Z,8.27
2018-02-16T15:47:52.375Z,9.10
2018-02-16T15:55:53.612Z,7.10
2018-02-16T15:58:25.180Z,10.90
2018-02-16T16:03:41.620Z,11.07
2018-02-16T16:06:13.499Z,8.13
2018-02-16T16:11:30.235Z,8.07
2018-02-16T16:14:07.924Z,11.80
2018-02-16T16:16:38.814Z,7.67
2018-02-16T16:19:13.677Z,8.33
2018-02-16T16:21:42.001Z,12.27
2018-02-16T16:24:09.352Z,8.00
2018-02-16T16:26:36.953Z,12.20
2018-02-16T16:29:05.351Z,8.00
2018-02-16T16:34:14.402Z,12.13
2018-02-16T16:36:42.333Z,10.77
2018-02-16T16:39:10.051Z,9.17
2018-02-16T16:59:41.327Z,15.27
2018-02-16T17:02:11.708Z,15.60
2018-02-16T17:04:44.754Z,18.42
2018-02-16T17:07:15.679Z,11.57
2018-02-16T17:09:46.794Z,14.63
2018-02-16T17:12:20.985Z,13.55
2018-02-16T17:14:50.411Z,13.27
2018-02-16T17:17:26.237Z,9.73
2018-02-16T17:19:57.605Z,11.02
2018-02-16T17:22:28.822Z,10.10
2018-02-16T17:45:43.518Z,11.65
2018-02-16T17:48:11.910Z,10.82
2018-02-16T18:08:40.369Z,9.63
2018-02-16T18:11:09.822Z,11.23
2018-02-16T18:13:43.173Z,9.32
2018-02-16T18:16:11.660Z,9.25
2018-02-16T18:18:39.684Z,14.13
2018-02-16T18:21:07.866Z,15.35
2018-02-16T18:23:36.317Z,16.37
2018-02-16T18:26:04.376Z,14.55
2018-02-16T18:28:32.596Z,18.35
2018-02-16T18:31:00.814Z,22.70
2018-02-16T18:33:29.656Z,14.43
2018-02-16T18:35:57.441Z,14.05
2018-02-16T18:38:25.455Z,13.75
2018-02-16T18:40:57.632Z,22.77
2018-02-16T18:43:25.544Z,20.90
2018-02-16T18:45:53.661Z,13.85
2018-02-16T18:48:20.993Z,18.35
2018-02-16T18:50:49.040Z,16.00
2018-02-16T18:53:17.310Z,20.77
2018-02-16T18:55:44.985Z,16.27
2018-02-16T18:58:12.212Z,10.35
2018-02-16T19:00:38.825Z,16.08
2018-02-16T19:03:06.712Z,13.15
2018-02-16T19:05:34.043Z,10.98
2018-02-16T19:08:02.222Z,15.73
2018-02-16T19:10:30.379Z,14.57
2018-02-16T19:12:58.380Z,18.15
2018-02-16T19:15:26.551Z,14.02
2018-02-16T19:17:54.712Z,13.85
2018-02-16T19:20:22.964Z,12.77
2018-02-16T19:22:52.361Z,13.15
2018-02-16T19:25:21.496Z,14.02
2018-02-16T19:27:49.911Z,14.00
2018-02-16T19:30:18.157Z,14.75
2018-02-16T19:32:46.410Z,15.40
2018-02-16T19:35:14.739Z,21.15
2018-02-16T19:37:44.861Z,13.18
2018-02-16T19:40:13.295Z,14.90
2018-02-16T19:42:42.358Z,13.88
2018-02-16T19:45:11.218Z,14.77
2018-02-16T19:47:39.576Z,13.32
2018-02-16T19:50:09.054Z,15.60
2018-02-16T19:52:37.382Z,13.65
2018-02-16T19:55:05.756Z,17.80
2018-02-16T19:57:35.986Z,11.48
2018-02-16T20:00:04.487Z,17.55
2018-02-16T20:02:32.995Z,12.07
2018-02-16T20:05:01.421Z,13.45
2018-02-16T20:07:30.670Z,16.90
2018-02-16T20:10:00.424Z,15.00
2018-02-16T20:12:28.896Z,19.42
2018-02-16T20:14:57.953Z,15.05
2018-02-16T20:17:26.358Z,17.40
2018-02-16T20:19:54.568Z,13.45
2018-02-16T20:22:23.121Z,20.85
2018-02-16T20:24:51.399Z,21.95
2018-02-16T20:27:20.599Z,18.02
2018-02-16T20:29:48.823Z,16.52
2018-02-16T20:32:17.904Z,14.50
2018-02-16T20:34:46.923Z,15.15
2018-02-16T20:37:15.666Z,11.23
2018-02-16T20:39:43.989Z,25.05
2018-02-16T20:42:12.463Z,19.62
2018-02-16T20:44:40.767Z,17.87
2018-02-16T20:47:09.447Z,17.35
2018-02-16T20:49:38.705Z,20.85
2018-02-16T20:52:07.235Z,21.75
2018-02-16T20:54:36.272Z,15.68
2018-02-16T20:57:04.586Z,19.12
2018-02-16T20:59:32.868Z,17.73
2018-02-16T21:02:01.952Z,19.20
2018-02-16T21:04:31.016Z,21.40
2018-02-16T21:06:59.533Z,15.90
2018-02-16T21:09:28.228Z,18.80
2018-02-16T21:11:57.233Z,18.92
2018-02-16T21:14:25.575Z,26.33
2018-02-16T21:16:54.806Z,18.02
2018-02-16T21:19:23.301Z,18.75
2018-02-16T21:21:51.538Z,20.48
2018-02-16T21:24:23.937Z,16.92
2018-02-16T21:26:53.277Z,18.90
2018-02-16T21:29:21.686Z,20.42
2018-02-16T21:31:50.835Z,16.15
2018-02-16T21:34:24.224Z,16.83
2018-02-16T21:36:52.511Z,13.85
2018-02-16T21:39:21.873Z,20.15
2018-02-16T21:41:50.170Z,14.10
2018-02-16T21:44:18.836Z,16.25
2018-02-16T21:46:47.392Z,15.07
2018-02-16T21:49:16.001Z,17.12
2018-02-16T21:51:46.261Z,17.02
2018-02-16T21:54:14.719Z,16.50
2018-02-16T21:56:42.892Z,20.08
2018-02-16T21:59:11.198Z,22.10
2018-02-16T22:01:39.526Z,19.73
2018-02-16T22:04:07.877Z,14.18
2018-02-16T22:06:36.037Z,14.00
2018-02-16T22:09:04.639Z,13.30
2018-02-16T22:11:33.529Z,21.02
2018-02-16T22:14:01.814Z,16.58
2018-02-16T22:16:30.133Z,17.55
2018-02-16T22:18:59.159Z,15.25
2018-02-16T22:21:27.390Z,19.23
2018-02-16T22:23:55.617Z,14.35
2018-02-16T22:26:24.803Z,19.90
2018-02-16T22:28:52.925Z,16.87
2018-02-16T22:31:20.902Z,16.75
2018-02-16T22:33:49.103Z,17.12
2018-02-16T22:36:16.073Z,13.80
2018-02-16T22:38:43.006Z,14.82
2018-02-16T22:41:10.123Z,21.52
2018-02-16T22:43:36.765Z,12.75
2018-02-16T22:46:03.377Z,20.80
2018-02-16T22:48:29.997Z,22.87
2018-02-16T22:50:56.634Z,19.90
2018-02-16T22:53:23.299Z,19.98
2018-02-16T22:55:50.039Z,14.07
2018-02-16T22:58:16.632Z,15.35
2018-02-16T23:00:43.335Z,20.95
2018-02-16T23:03:09.972Z,18.77
2018-02-16T23:05:36.620Z,15.20
2018-02-16T23:08:03.318Z,17.42
2018-02-16T23:10:30.727Z,21.17
